createdAt,value
2022-11-26T00:00:25.611Z,4.40
2022-11-26T00:02:53.606Z,4.73
2022-11-26T00:05:22.495Z,4.03
2022-11-26T00:07:55.557Z,4.60
2022-11-26T00:10:28.130Z,4.10
2022-11-26T00:12:56.145Z,4.13
2022-11-26T00:15:25.202Z,3.80
2022-11-26T00:17:52.921Z,3.87
2022-11-26T00:20:21.547Z,4.00
2022-11-26T00:22:54.234Z,3.33
2022-11-26T00:25:41.275Z,3.30
2022-11-26T00:28:29.359Z,3.53
2022-11-26T00:30:57.953Z,3.77
2022-11-26T00:33:25.977Z,3.47
2022-11-26T00:36:15.912Z,3.67
2022-11-26T00:38:44.018Z,3.67
2022-11-26T00:41:22.631Z,3.40
2022-11-26T00:43:50.461Z,3.57
2022-11-26T00:46:19.894Z,3.13
2022-11-26T00:48:46.734Z,3.50
2022-11-26T00:51:18.257Z,3.70
2022-11-26T00:53:46.421Z,3.87
2022-11-26T00:56:16.272Z,4.10
2022-11-26T00:58:42.628Z,3.67
2022-11-26T01:01:12.273Z,3.30
2022-11-26T01:03:42.766Z,3.47
2022-11-26T01:06:20.086Z,3.20
2022-11-26T01:08:47.233Z,3.30
2022-11-26T01:11:17.242Z,3.23
2022-11-26T01:13:45.899Z,4.37
2022-11-26T01:16:26.651Z,4.03
2022-11-26T01:18:55.411Z,3.70
2022-11-26T01:21:23.178Z,3.97
2022-11-26T01:23:49.821Z,5.63
2022-11-26T01:26:19.042Z,5.43
2022-11-26T01:28:46.320Z,5.50
2022-11-26T01:31:15.788Z,4.90
2022-11-26T01:33:42.493Z,4.87
2022-11-26T01:36:18.855Z,5.13
2022-11-26T01:38:45.227Z,5.40
2022-11-26T01:41:23.292Z,5.47
2022-11-26T01:43:51.956Z,6.40
2022-11-26T01:46:22.296Z,7.03
2022-11-26T01:48:50.135Z,6.80
2022-11-26T01:51:26.701Z,6.77
2022-11-26T01:53:58.897Z,6.30
2022-11-26T01:56:48.365Z,6.50
2022-11-26T01:59:21.894Z,6.13
2022-11-26T02:01:51.293Z,5.67
2022-11-26T02:04:25.839Z,6.73
2022-11-26T02:06:54.538Z,6.30
2022-11-26T02:09:23.137Z,6.87
2022-11-26T02:11:49.618Z,5.87
2022-11-26T02:14:23.364Z,7.10
2022-11-26T02:17:14.664Z,6.00
2022-11-26T02:19:44.680Z,5.73
2022-11-26T02:22:27.840Z,5.87
2022-11-26T02:25:18.587Z,5.53
2022-11-26T02:28:11.406Z,3.90
2022-11-26T02:30:45.326Z,3.90
2022-11-26T02:33:21.349Z,4.03
2022-11-26T02:35:54.090Z,4.07
2022-11-26T02:38:23.619Z,4.00
2022-11-26T02:40:51.822Z,3.70
2022-11-26T02:43:19.634Z,4.17
2022-11-26T02:45:53.160Z,3.90
2022-11-26T02:48:27.318Z,3.90
2022-11-26T02:50:58.024Z,3.53
2022-11-26T02:53:28.677Z,3.83
2022-11-26T02:56:03.550Z,3.63
2022-11-26T02:58:31.701Z,3.50
2022-11-26T03:01:00.581Z,4.23
2022-11-26T03:03:33.123Z,3.87
2022-11-26T03:06:04.594Z,3.97
2022-11-26T03:08:32.069Z,3.90
2022-11-26T03:10:59.177Z,3.80
2022-11-26T03:13:25.994Z,3.33
2022-11-26T03:15:52.398Z,3.47
2022-11-26T03:18:18.773Z,3.83
2022-11-26T03:20:45.298Z,3.90
2022-11-26T03:23:11.654Z,4.20
2022-11-26T03:25:38.044Z,4.07
2022-11-26T03:28:04.903Z,4.10
2022-11-26T03:30:31.343Z,4.10
2022-11-26T03:32:57.851Z,3.77
2022-11-26T03:35:24.287Z,3.97
2022-11-26T03:37:50.803Z,4.03
2022-11-26T03:40:17.692Z,4.07
2022-11-26T03:42:44.581Z,3.97
2022-11-26T03:45:11.903Z,3.70
2022-11-26T03:47:38.919Z,4.37
2022-11-26T03:50:06.712Z,3.53
2022-11-26T03:52:33.797Z,3.60
2022-11-26T03:55:00.173Z,4.00
2022-11-26T03:57:27.083Z,3.97
2022-11-26T03:59:53.485Z,4.00
2022-11-26T04:02:19.832Z,3.97
2022-11-26T04:04:46.338Z,4.03
2022-11-26T04:07:12.713Z,3.83
2022-11-26T04:09:39.166Z,3.73
2022-11-26T04:12:05.751Z,3.70
2022-11-26T04:14:32.200Z,4.03
2022-11-26T04:16:58.603Z,3.70
2022-11-26T04:19:25.020Z,3.10
2022-11-26T04:21:51.515Z,4.20
2022-11-26T04:24:18.090Z,3.70
2022-11-26T04:26:44.557Z,3.87
2022-11-26T04:29:10.972Z,3.23
2022-11-26T04:31:37.401Z,3.83
2022-11-26T04:34:03.867Z,3.80
2022-11-26T04:36:30.278Z,3.67
2022-11-26T04:38:58.380Z,3.70
2022-11-26T04:41:25.486Z,3.90
2022-11-26T04:43:51.859Z,3.13
2022-11-26T04:46:18.320Z,3.33
2022-11-26T04:48:44.794Z,3.60
2022-11-26T04:51:11.189Z,3.63
2022-11-26T04:53:37.584Z,3.63
2022-11-26T04:56:04.210Z,4.10
2022-11-26T04:58:30.633Z,3.27
2022-11-26T05:00:57.251Z,4.23
2022-11-26T05:06:11.766Z,3.90
2022-11-26T05:08:39.559Z,3.10
2022-11-26T05:11:07.414Z,4.60
2022-11-26T05:13:34.048Z,5.10
2022-11-26T05:16:00.664Z,4.90
2022-11-26T05:18:27.140Z,4.27
2022-11-26T05:20:53.685Z,4.77
2022-11-26T05:23:20.201Z,6.83
2022-11-26T05:25:47.791Z,6.17
2022-11-26T05:28:14.539Z,5.07
2022-11-26T05:30:41.185Z,5.30
2022-11-26T05:33:08.056Z,4.83
2022-11-26T05:35:35.483Z,5.17
2022-11-26T05:38:02.037Z,5.47
2022-11-26T05:40:28.671Z,5.30
2022-11-26T05:42:55.183Z,4.80
2022-11-26T05:45:21.719Z,4.77
2022-11-26T05:47:48.275Z,4.90
2022-11-26T05:50:15.592Z,4.63
2022-11-26T05:52:42.240Z,4.43
2022-11-26T05:55:09.429Z,5.00
2022-11-26T05:57:38.060Z,5.40
2022-11-26T06:00:07.647Z,5.23
2022-11-26T06:02:34.209Z,4.90
2022-11-26T06:05:00.809Z,4.80
2022-11-26T06:07:29.798Z,5.27
2022-11-26T06:09:56.426Z,5.10
2022-11-26T06:12:23.091Z,5.30
2022-11-26T06:14:49.930Z,5.20
2022-11-26T06:17:16.599Z,4.83
2022-11-26T06:19:43.368Z,4.37
2022-11-26T06:22:11.992Z,4.73
2022-11-26T06:24:38.913Z,4.90
2022-11-26T06:27:08.085Z,5.13
2022-11-26T06:29:34.707Z,5.13
2022-11-26T06:32:01.301Z,5.13
2022-11-26T06:34:27.910Z,4.40
2022-11-26T06:39:20.914Z,4.73
2022-11-26T06:41:47.485Z,5.00
2022-11-26T06:44:13.927Z,4.47
2022-11-26T06:46:40.325Z,4.17
2022-11-26T06:49:06.957Z,4.43
2022-11-26T06:51:34.071Z,4.50
2022-11-26T06:54:01.726Z,3.93
2022-11-26T06:56:28.529Z,3.97
2022-11-26T06:58:55.291Z,4.40
2022-11-26T07:01:24.840Z,4.70
2022-11-26T07:03:52.233Z,4.00
2022-11-26T07:06:30.831Z,4.47
2022-11-26T07:08:59.682Z,4.17
2022-11-26T07:11:26.595Z,4.60
2022-11-26T07:13:53.675Z,4.33
2022-11-26T07:16:20.640Z,4.07
2022-11-26T07:18:51.578Z,4.57
2022-11-26T07:21:19.247Z,4.43
2022-11-26T07:23:46.791Z,4.77
2022-11-26T07:26:21.413Z,4.40
2022-11-26T07:29:04.127Z,4.03
2022-11-26T07:32:13.482Z,4.40
2022-11-26T07:34:51.165Z,3.67
2022-11-26T07:37:28.759Z,4.70
2022-11-26T07:43:35.130Z,4.13
2022-11-26T07:46:10.208Z,4.30
2022-11-26T07:49:12.941Z,4.10
2022-11-26T07:51:53.703Z,4.80
2022-11-26T07:54:38.163Z,4.40
2022-11-26T07:57:09.478Z,5.00
2022-11-26T08:17:33.251Z,4.90
2022-11-26T08:20:11.834Z,5.43
2022-11-26T08:26:20.539Z,4.83
2022-11-26T08:32:06.790Z,5.23
2022-11-26T08:34:33.652Z,4.57
2022-11-26T08:37:00.173Z,5.43
2022-11-26T08:39:26.911Z,5.90
2022-11-26T08:41:53.398Z,6.17
2022-11-26T08:44:20.988Z,5.33
2022-11-26T08:46:47.558Z,5.23
2022-11-26T08:49:17.323Z,4.57
2022-11-26T08:51:44.220Z,4.60
2022-11-26T08:54:10.879Z,5.23
2022-11-26T08:56:37.380Z,5.40
2022-11-26T08:59:03.994Z,4.80
2022-11-26T09:01:32.869Z,4.30
2022-11-26T09:04:01.090Z,4.47
2022-11-26T09:06:30.523Z,4.47
2022-11-26T09:09:12.619Z,4.80
2022-11-26T09:11:46.760Z,4.13
2022-11-26T09:14:14.892Z,4.63
2022-11-26T09:16:41.556Z,5.03
2022-11-26T09:19:08.825Z,6.37
2022-11-26T09:21:36.094Z,5.77
2022-11-26T09:24:03.417Z,5.50
2022-11-26T09:26:31.691Z,6.03
2022-11-26T09:28:58.630Z,6.77
2022-11-26T09:31:25.728Z,5.57
2022-11-26T09:37:21.147Z,4.73
2022-11-26T09:40:00.826Z,4.57
2022-11-26T09:46:07.685Z,4.70
2022-11-26T09:52:24.956Z,4.73
2022-11-26T09:58:34.998Z,5.20
2022-11-26T10:01:57.459Z,4.77
2022-11-26T10:04:42.467Z,3.80
2022-11-26T10:08:03.612Z,4.77
2022-11-26T10:10:51.426Z,3.90
2022-11-26T10:13:45.314Z,4.50
2022-11-26T10:16:28.720Z,5.20
2022-11-26T10:19:31.133Z,4.00
2022-11-26T10:22:18.007Z,4.30
2022-11-26T10:24:57.626Z,3.60
2022-11-26T10:27:36.227Z,4.23
2022-11-26T10:30:37.582Z,3.70
2022-11-26T10:33:07.166Z,4.37
2022-11-26T10:35:33.651Z,4.07
2022-11-26T10:38:00.113Z,3.70
2022-11-26T10:40:29.475Z,3.97
2022-11-26T10:43:12.547Z,4.50
2022-11-26T10:45:43.519Z,4.17
2022-11-26T10:48:30.558Z,3.97
2022-11-26T10:51:14.953Z,4.93
2022-11-26T10:54:04.333Z,4.77
2022-11-26T10:56:42.981Z,5.00
2022-11-26T10:59:44.911Z,4.97
2022-11-26T11:02:20.410Z,4.37
2022-11-26T11:04:53.627Z,5.30
2022-11-26T11:07:32.469Z,3.30
2022-11-26T11:10:08.372Z,4.37
2022-11-26T11:12:36.682Z,4.17
2022-11-26T11:15:20.430Z,5.13
2022-11-26T11:18:05.000Z,5.20
2022-11-26T11:20:40.542Z,4.97
2022-11-26T11:23:52.166Z,5.00
2022-11-26T11:26:22.187Z,4.97
2022-11-26T11:28:54.648Z,4.67
2022-11-26T11:31:26.972Z,4.67
2022-11-26T11:34:12.787Z,4.73
2022-11-26T11:36:39.734Z,4.53
2022-11-26T11:39:06.223Z,4.73
2022-11-26T11:41:39.199Z,4.30
2022-11-26T11:44:15.439Z,4.37
2022-11-26T11:47:06.302Z,3.80
2022-11-26T11:49:51.331Z,4.43
2022-11-26T11:52:48.810Z,4.20
2022-11-26T11:55:50.074Z,4.18
2022-11-26T12:00:13.333Z,4.27
2022-11-26T12:03:17.133Z,4.50
2022-11-26T12:05:49.793Z,4.07
2022-11-26T12:08:44.049Z,3.73
2022-11-26T12:11:16.787Z,4.50
2022-11-26T12:13:50.526Z,4.20
2022-11-26T12:16:20.044Z,4.37
2022-11-26T12:18:58.597Z,4.50
2022-11-26T12:21:38.127Z,4.03
2022-11-26T12:24:23.998Z,3.90
2022-11-26T12:27:03.270Z,4.10
2022-11-26T12:29:41.784Z,4.07
2022-11-26T12:32:22.625Z,4.27
2022-11-26T12:34:52.661Z,3.80
2022-11-26T12:37:31.866Z,4.43
2022-11-26T12:40:29.452Z,4.03
2022-11-26T12:43:30.006Z,3.77
2022-11-26T12:46:04.850Z,3.60
2022-11-26T12:48:53.979Z,4.60
2022-11-26T12:51:33.333Z,3.63
2022-11-26T12:54:05.433Z,4.23
2022-11-26T12:56:43.482Z,3.93
2022-11-26T12:59:12.857Z,3.97
2022-11-26T13:01:39.778Z,4.50
2022-11-26T13:04:36.093Z,3.53
2022-11-26T13:07:11.603Z,3.33
2022-11-26T13:10:14.889Z,3.17
2022-11-26T13:12:59.630Z,3.43
2022-11-26T13:15:34.413Z,3.63
2022-11-26T13:18:01.781Z,3.40
2022-11-26T13:20:40.391Z,3.37
2022-11-26T13:23:28.692Z,3.97
2022-11-26T13:26:06.818Z,3.27
2022-11-26T13:28:52.190Z,3.60
2022-11-26T13:32:02.228Z,3.57
2022-11-26T13:34:50.554Z,3.63
2022-11-26T13:37:36.291Z,3.60
2022-11-26T13:40:22.904Z,3.33
2022-11-26T13:43:15.845Z,12.57
2022-11-26T13:45:55.896Z,4.30
2022-11-26T13:48:31.258Z,2.93
2022-11-26T13:51:09.478Z,2.90
2022-11-26T13:53:47.096Z,2.87
2022-11-26T13:56:17.433Z,3.67
2022-11-26T13:59:05.570Z,3.30
2022-11-26T14:01:49.205Z,2.80
2022-11-26T14:04:49.610Z,3.93
2022-11-26T14:07:25.769Z,3.80
2022-11-26T14:09:57.788Z,3.63
2022-11-26T14:13:02.326Z,3.83
2022-11-26T14:15:40.735Z,6.57
2022-11-26T14:18:11.702Z,4.67
2022-11-26T14:20:56.911Z,4.40
2022-11-26T14:23:44.569Z,3.47
2022-11-26T14:26:16.883Z,4.30
2022-11-26T14:28:43.499Z,3.30
2022-11-26T14:31:23.338Z,3.70
2022-11-26T14:33:53.791Z,3.77
2022-11-26T14:36:30.045Z,2.77
2022-11-26T14:39:06.429Z,3.80
2022-11-26T14:41:54.118Z,4.10
2022-11-26T14:44:21.627Z,4.37
2022-11-26T14:46:50.889Z,4.30
2022-11-26T14:49:34.488Z,4.80
2022-11-26T14:52:03.178Z,4.20
2022-11-26T14:54:33.057Z,3.53
2022-11-26T14:57:05.880Z,3.43
2022-11-26T14:59:32.391Z,4.53
2022-11-26T15:01:58.824Z,3.53
2022-11-26T15:04:30.302Z,3.97
2022-11-26T15:06:58.389Z,4.30
2022-11-26T15:09:27.552Z,4.10
2022-11-26T15:12:10.481Z,3.97
2022-11-26T15:14:58.961Z,4.77
2022-11-26T15:17:28.878Z,4.70
2022-11-26T15:19:59.623Z,5.93
2022-11-26T15:22:39.826Z,5.23
2022-11-26T15:25:16.558Z,5.40
2022-11-26T15:27:53.776Z,5.90
2022-11-26T15:30:26.924Z,7.03
2022-11-26T15:33:10.818Z,7.00
2022-11-26T15:35:37.534Z,5.50
2022-11-26T15:38:15.746Z,5.13
2022-11-26T15:40:52.266Z,5.60
2022-11-26T15:43:25.459Z,5.63
2022-11-26T15:45:55.761Z,5.50
2022-11-26T15:48:51.125Z,5.67
2022-11-26T15:51:34.905Z,5.93
2022-11-26T15:54:03.065Z,6.40
2022-11-26T15:56:35.629Z,6.13
2022-11-26T15:59:06.997Z,5.90
2022-11-26T16:01:36.395Z,5.63
2022-11-26T16:04:06.208Z,6.17
2022-11-26T16:06:40.304Z,6.40
2022-11-26T16:09:12.419Z,7.77
2022-11-26T16:11:55.360Z,7.67
2022-11-26T16:14:36.032Z,7.03
2022-11-26T16:17:14.103Z,7.23
2022-11-26T16:19:51.306Z,7.07
2022-11-26T16:22:24.046Z,7.37
2022-11-26T16:25:18.657Z,7.70
2022-11-26T16:28:21.355Z,7.90
2022-11-26T16:30:47.901Z,7.57
2022-11-26T16:33:14.316Z,6.87
2022-11-26T16:35:45.688Z,7.43
2022-11-26T16:38:20.143Z,7.17
2022-11-26T16:40:47.002Z,7.30
2022-11-26T16:43:14.372Z,7.50
2022-11-26T16:45:41.174Z,7.87
2022-11-26T16:48:20.071Z,7.93
2022-11-26T16:50:46.436Z,7.87
2022-11-26T16:53:12.820Z,8.57
2022-11-26T16:55:39.268Z,9.27
2022-11-26T16:58:05.975Z,7.87
2022-11-26T17:00:33.554Z,8.57
2022-11-26T17:03:00.083Z,9.23
2022-11-26T17:05:26.683Z,8.90
2022-11-26T17:07:56.322Z,9.90
2022-11-26T17:10:26.343Z,9.43
2022-11-26T17:12:52.873Z,8.97
2022-11-26T17:15:19.335Z,9.70
2022-11-26T17:17:46.135Z,9.73
2022-11-26T17:20:16.888Z,10.27
2022-11-26T17:22:43.606Z,9.83
2022-11-26T17:25:10.191Z,10.03
2022-11-26T17:27:37.632Z,9.03
2022-11-26T17:30:05.634Z,8.73
2022-11-26T17:32:32.051Z,8.97
2022-11-26T17:34:58.428Z,9.40
2022-11-26T17:37:28.187Z,8.83
2022-11-26T17:39:55.539Z,10.07
2022-11-26T17:42:23.785Z,11.23
2022-11-26T17:44:51.524Z,8.57
2022-11-26T17:47:20.897Z,10.17
2022-11-26T17:49:47.886Z,8.80
2022-11-26T17:52:15.229Z,9.80
2022-11-26T17:54:42.154Z,9.70
2022-11-26T17:57:10.351Z,11.07
2022-11-26T17:59:37.161Z,13.23
2022-11-26T18:02:04.002Z,11.13
2022-11-26T18:04:30.446Z,11.97
2022-11-26T18:07:06.979Z,12.30
2022-11-26T18:09:34.151Z,11.63
2022-11-26T18:12:01.460Z,11.60
2022-11-26T18:14:28.157Z,12.77
2022-11-26T18:16:54.698Z,13.43
2022-11-26T18:19:23.220Z,12.43
2022-11-26T18:21:50.777Z,13.03
2022-11-26T18:24:17.577Z,13.33
2022-11-26T18:26:43.996Z,11.73
2022-11-26T18:29:11.430Z,10.83
2022-11-26T18:31:39.887Z,10.13
2022-11-26T18:34:07.529Z,9.07
2022-11-26T18:36:34.045Z,8.53
2022-11-26T18:39:02.228Z,7.63
2022-11-26T18:41:28.630Z,8.33
2022-11-26T18:43:55.027Z,8.63
2022-11-26T18:46:21.506Z,8.47
2022-11-26T18:48:50.182Z,7.57
2022-11-26T18:51:17.083Z,7.50
2022-11-26T18:53:44.683Z,8.17
2022-11-26T18:56:14.185Z,7.57
2022-11-26T18:58:41.151Z,8.90
2022-11-26T19:01:20.573Z,9.00
2022-11-26T19:03:47.324Z,8.60
2022-11-26T19:06:21.687Z,9.43
2022-11-26T19:08:50.648Z,10.17
2022-11-26T19:11:19.905Z,10.00
2022-11-26T19:13:48.034Z,10.77
2022-11-26T19:16:18.000Z,9.80
2022-11-26T19:18:45.677Z,11.07
2022-11-26T19:21:16.698Z,11.90
2022-11-26T19:23:43.087Z,11.63
2022-11-26T19:26:09.497Z,12.70
2022-11-26T19:28:35.970Z,10.80
2022-11-26T19:31:05.978Z,10.73
2022-11-26T19:33:32.579Z,10.03
2022-11-26T19:36:02.498Z,9.93
2022-11-26T19:38:29.222Z,9.87
2022-11-26T19:40:57.519Z,10.30
2022-11-26T19:43:28.934Z,10.53
2022-11-26T19:46:10.610Z,9.30
2022-11-26T19:48:39.898Z,9.73
2022-11-26T19:51:08.493Z,9.47
2022-11-26T19:53:35.527Z,10.13
2022-11-26T19:56:07.189Z,11.10
2022-11-26T19:58:35.221Z,10.47
2022-11-26T20:01:02.661Z,28.43
2022-11-26T20:03:35.787Z,11.60
2022-11-26T20:06:12.888Z,10.73
2022-11-26T20:08:39.832Z,10.43
2022-11-26T20:11:08.497Z,10.30
2022-11-26T20:13:36.245Z,10.00
2022-11-26T20:16:11.734Z,9.83
2022-11-26T20:18:40.027Z,9.67
2022-11-26T20:21:10.052Z,10.60
2022-11-26T20:23:56.949Z,11.40
2022-11-26T20:26:55.979Z,9.70
2022-11-26T20:29:32.558Z,9.03
2022-11-26T20:32:16.560Z,10.03
2022-11-26T20:35:03.128Z,9.37
2022-11-26T20:37:40.880Z,10.07
2022-11-26T20:40:20.090Z,9.37
2022-11-26T20:43:11.003Z,9.00
2022-11-26T20:45:41.768Z,8.50
2022-11-26T20:48:22.388Z,8.70
2022-11-26T20:50:55.374Z,9.13
2022-11-26T20:53:21.755Z,9.10
2022-11-26T20:55:53.203Z,9.80
2022-11-26T20:58:20.344Z,9.97
2022-11-26T21:00:46.869Z,9.67
2022-11-26T21:03:13.335Z,9.70
2022-11-26T21:05:39.899Z,10.10
2022-11-26T21:08:06.606Z,9.77
2022-11-26T21:10:33.298Z,9.87
2022-11-26T21:12:59.657Z,9.10
2022-11-26T21:15:26.042Z,9.53
2022-11-26T21:17:52.606Z,9.77
2022-11-26T21:20:19.038Z,10.27
2022-11-26T21:22:45.409Z,10.23
2022-11-26T21:25:11.771Z,10.97
2022-11-26T21:27:38.151Z,10.97
2022-11-26T21:30:05.200Z,11.30
2022-11-26T21:32:31.622Z,11.03
2022-11-26T21:34:57.974Z,10.07
2022-11-26T21:37:24.838Z,10.60
2022-11-26T21:39:51.255Z,10.63
2022-11-26T21:42:17.705Z,10.77
2022-11-26T21:44:44.043Z,11.27
2022-11-26T21:47:10.512Z,10.13
2022-11-26T21:49:36.969Z,9.17
2022-11-26T21:52:04.479Z,11.77
2022-11-26T21:54:31.422Z,10.13
2022-11-26T21:56:58.162Z,9.43
2022-11-26T21:59:24.582Z,10.80
2022-11-26T22:01:51.155Z,9.73
2022-11-26T22:04:19.598Z,8.73
2022-11-26T22:06:48.548Z,9.77
2022-11-26T22:09:16.741Z,8.43
2022-11-26T22:11:45.008Z,8.97
2022-11-26T22:14:16.821Z,9.10
2022-11-26T22:16:43.450Z,9.27
2022-11-26T22:19:10.134Z,7.97
2022-11-26T22:21:41.613Z,9.20
2022-11-26T22:24:12.067Z,9.83
2022-11-26T22:26:38.920Z,9.23
2022-11-26T22:29:05.721Z,10.87
2022-11-26T22:31:34.719Z,10.30
2022-11-26T22:34:11.012Z,10.83
2022-11-26T22:36:38.441Z,10.90
2022-11-26T22:39:09.874Z,11.80
2022-11-26T22:41:37.310Z,11.03
2022-11-26T22:44:04.026Z,10.97
2022-11-26T22:46:30.862Z,11.70
2022-11-26T22:49:00.941Z,10.13
2022-11-26T22:51:30.124Z,11.70
2022-11-26T22:53:58.907Z,10.57
2022-11-26T22:56:26.239Z,11.40
2022-11-26T22:58:53.216Z,10.57
2022-11-26T23:01:29.223Z,9.70
2022-11-26T23:03:56.944Z,9.07
2022-11-26T23:06:26.279Z,9.33
2022-11-26T23:08:53.186Z,8.97
2022-11-26T23:11:35.676Z,9.03
2022-11-26T23:14:04.729Z,8.93
2022-11-26T23:16:31.225Z,8.70
2022-11-26T23:18:57.837Z,9.73
2022-11-26T23:21:30.661Z,9.33
2022-11-26T23:23:57.216Z,9.03
2022-11-26T23:26:27.774Z,8.67
2022-11-26T23:28:56.389Z,8.80
2022-11-26T23:31:28.519Z,8.97
2022-11-26T23:33:54.980Z,8.50
2022-11-26T23:36:22.581Z,9.90
2022-11-26T23:38:49.542Z,9.50
2022-11-26T23:41:16.155Z,10.13
2022-11-26T23:43:42.956Z,10.43
2022-11-26T23:46:27.587Z,10.73
2022-11-26T23:48:54.147Z,10.43
2022-11-26T23:51:29.227Z,10.73
2022-11-26T23:53:55.669Z,11.07
2022-11-26T23:56:24.934Z,11.50
2022-11-26T23:58:53.523Z,9.97
